Bloomington, Wisconsin
Current Conditions -  °F | °C
As of 8:15 AM on Tuesday 27 Jan 2015 (Local Time) from KPDC Reporting Station
Overcast Overcast  
Wind Chill: -4°   Ceiling: 2300
Heat Index: -1°   Visibility: 10mi
Dew Point: -7°   Wind: 5mph
Humidity: 67%   Direction: 10°N
Pressure: 30.15"   Gusts: NA
Location:  42.89°N, 90.92°W
Report Text: KPDC 271415Z AUTO 01004KT 10SM OVC023 M01/M06 A3015 RMK AO2 T10101065
Loading
Personal Weather Stations






























Interactive Weather Map New forecast layout! Learn more

10-Day Weather Forecast

Advertisements
Track Severe Weather on mobile